Flight Track Log - Related Links

Times and Time Zones

All times are in EDT time to prevent confusion due to time zone crossing. See the DAL268 flight status page for this flight to view local times or setup timezone preferences in your user account.

Time Position Orientation Groundspeed Altitude Reporting Facility
EDT Latitude Longitude Course Direction KTS MPH feet Rate Location/Type
Tue 23:56:12 40.6300 -73.7770 123° Southeast 183 211 200  Level FlightAware
Tue 23:56:37 40.6190 -73.7520 120° Southeast 188 216 900 1,418 Climbing FlightAware
Tue 23:57:07 40.6100 -73.7200 110° East 211 243 1,500 1,091 Climbing FlightAware
Tue 23:57:32 40.6070 -73.6860 97° East 235 270 1,900 943 Climbing FlightAware
Tue 23:58:17 40.6180 -73.6170 78° East 273 314 2,600 1,286 Climbing FlightAware
Tue 23:58:42 40.6390 -73.5850 49° Northeast 288 331 3,400 2,291 Climbing FlightAware
Tue 23:59:12 40.6660 -73.5450 48° Northeast 295 339 4,700 2,618 Climbing FlightAware
Tue 23:59:37 40.6890 -73.5130 47° Northeast 299 344 5,800 2,727 Climbing FlightAware
Wed 00:00:07 40.7230 -73.4790 37° Northeast 302 348 7,200 3,100 Climbing FlightAware
Wed 00:00:37 40.7620 -73.4550 25° Northeast 295 339 8,900 2,836 Climbing FlightAware
Wed 00:01:02 40.7930 -73.4400 20° North 301 346 9,800 1,971 Climbing FlightAware
Wed 00:01:47 40.8550 -73.4090 21° North 326 375 11,200 1,694 Climbing FlightAware
Wed 00:02:27 40.9120 -73.3810 20° North 353 406 12,200 1,412 Climbing FlightAware
Wed 00:03:12 40.9870 -73.3430 21° North 387 445 13,200 1,765 Climbing FlightAware
Wed 00:03:52 41.0520 -73.3080 22° Northeast 395 455 14,700 2,250 Climbing FlightAware
Wed 00:04:32 41.1240 -73.2710 21° North 401 461 16,200 2,118 Climbing FlightAware
Wed 00:05:17 41.2000 -73.2320 21° North 407 468 17,700 2,118 Climbing FlightAware
Wed 00:05:57 41.2710 -73.1960 21° North 410 472 19,200 2,259 Climbing FlightAware
Wed 00:06:42 41.3520 -73.1530 22° Northeast 412 474 20,900 2,222 Climbing FlightAware
Wed 00:06:51 41.3688 -73.1403 30° Northeast 425 489 21,200 1,625 Climbing FlightAware
Wed 00:07:30 41.4186 -73.0548 52° Northeast 455 524 22,200 1,377 Climbing FlightAware
Wed 00:07:52 41.4433 -73.0040 57° Northeast 452 520 22,600 1,377 Climbing FlightAware
Wed 00:08:31 41.5003 -72.9284 45° Northeast 442 509 23,600 160 Climbing FlightAware
Wed 00:09:07 41.5330 -72.8700 53° Northeast 448 516 22,800 -558 Descending FlightAware
Wed 00:09:57 41.5920 -72.7830 48° Northeast 448 516 22,800  Level FlightAware
Wed 00:10:37 41.6390 -72.7130 48° Northeast 448 516 22,800 2,750 Level FlightAware
Wed 00:10:52 41.6410 -72.7930 272° West 26,800 4,125 Climbing FlightAware
Wed 00:11:57 41.8350 -72.6090 35° Northeast 445 512 28,300 1,513 Climbing FlightAware
Wed 00:12:47 41.9160 -72.5310 36° Northeast 437 503 29,700 1,600 Climbing FlightAware
Wed 00:13:42 42.0140 -72.4380 35° Northeast 431 496 31,100 884 Climbing FlightAware
Wed 00:14:22 42.0810 -72.3750 35° Northeast 437 503 31,100  Level FlightAware
Wed 00:15:02 42.1460 -72.3120 36° Northeast 439 505 31,100  Level FlightAware
Wed 00:15:47 42.2200 -72.2390 36° Northeast 445 512 31,100  Level FlightAware
Wed 00:16:27 42.2850 -72.1720 37° Northeast 451 519 31,100  Level FlightAware
Wed 00:17:12 42.3600 -72.0930 38° Northeast 455 524 31,100  Level FlightAware
Wed 00:17:52 42.4270 -72.0230 38° Northeast 459 528 31,100  Level FlightAware
Wed 00:18:32 42.4940 -71.9520 38° Northeast 464 534 31,100  Level FlightAware
Wed 00:19:17 42.5740 -71.8680 38° Northeast 468 539 31,100  Level FlightAware
Wed 00:19:57 42.6410 -71.7970 38° Northeast 473 544 31,100  Level FlightAware
Wed 00:20:42 42.7170 -71.7160 38° Northeast 474 545 31,100  Level FlightAware
Wed 00:21:22 42.7870 -71.6410 38° Northeast 475 547 31,100  Level FlightAware
Wed 00:22:02 42.8570 -71.5670 38° Northeast 475 547 31,100  Level FlightAware
Wed 00:22:47 42.9350 -71.4840 38° Northeast 471 542 31,100  Level FlightAware
Wed 00:23:27 43.0040 -71.4100 38° Northeast 465 535 31,100  Level FlightAware
Wed 00:24:12 43.0770 -71.3300 39° Northeast 465 535 31,100  Level FlightAware
Wed 00:24:52 43.1450 -71.2570 38° Northeast 464 534 31,100  Level FlightAware
Wed 00:25:32 43.2130 -71.1830 38° Northeast 462 532 31,100  Level FlightAware
Wed 00:26:17 43.2900 -71.1010 38° Northeast 460 529 31,100  Level FlightAware
Wed 00:26:57 43.3570 -71.0270 39° Northeast 457 526 31,100 -75 Level FlightAware
Wed 00:27:37 43.4230 -70.9540 39° Northeast 455 524 31,000  Descending FlightAware
Wed 00:28:22 43.4950 -70.8750 39° Northeast 453 521 31,100 71 Climbing FlightAware
Wed 00:29:02 43.5590 -70.8050 38° Northeast 451 519 31,100  Level FlightAware
Wed 00:29:47 43.6350 -70.7220 38° Northeast 453 521 31,100  Level FlightAware
Wed 00:30:27 43.7010 -70.6480 39° Northeast 456 525 31,100  Level FlightAware
Wed 00:31:07 43.7670 -70.5760 38° Northeast 458 527 31,100 -71 Level FlightAware
Wed 00:31:52 43.8390 -70.4950 39° Northeast 463 533 31,000  Descending FlightAware
Wed 00:32:32 43.9060 -70.4200 39° Northeast 469 540 31,100  Climbing FlightAware
Wed 00:33:12 43.9750 -70.3430 39° Northeast 475 547 31,000 -75 Descending FlightAware
Wed 00:33:52 44.0410 -70.2700 38° Northeast 481 554 31,000  Level FlightAware
Wed 00:34:37 44.1240 -70.1740 40° Northeast 482 555 31,000  Level FlightAware
Wed 00:35:22 44.1990 -70.0890 39° Northeast 484 557 31,000 75 Level FlightAware
Wed 00:35:57 44.2600 -70.0210 39° Northeast 485 558 31,100 71 Climbing FlightAware
Wed 00:36:47 44.3490 -69.9200 39° Northeast 485 558 31,100 -71 Level FlightAware
Wed 00:37:22 44.4050 -69.8560 39° Northeast 485 558 31,000 -75 Descending FlightAware
Wed 00:38:07 44.4770 -69.7740 39° Northeast 485 558 31,000  Level FlightAware
Wed 00:38:47 44.5370 -69.7060 39° Northeast 485 558 31,000 71 Level FlightAware
Wed 00:39:32 44.6370 -69.5880 40° Northeast 493 567 31,100 71 Climbing FlightAware
Wed 00:40:12 44.7100 -69.5040 39° Northeast 494 568 31,100  Level FlightAware
Wed 00:40:57 44.7880 -69.4140 39° Northeast 494 568 31,100  Level FlightAware
Wed 00:41:37 44.8590 -69.3320 39° Northeast 495 570 31,100  Level FlightAware
Wed 00:42:22 44.9360 -69.2410 40° Northeast 497 572 31,100  Level FlightAware
Wed 00:43:02 45.0070 -69.1580 40° Northeast 501 577 31,100  Level FlightAware
Wed 00:43:47 45.0880 -69.0610 40° Northeast 503 579 31,100  Level FlightAware
Wed 00:44:27 45.1600 -68.9760 40° Northeast 505 581 31,100  Level FlightAware
Wed 00:45:07 45.2310 -68.8910 40° Northeast 506 582 31,100  Level FlightAware
Wed 00:45:52 45.3130 -68.7950 39° Northeast 506 582 31,100 -71 Level FlightAware
Wed 00:46:32 45.3840 -68.7120 39° Northeast 506 582 31,000  Descending FlightAware
Wed 00:47:17 45.4660 -68.6130 40° Northeast 506 582 31,100 71 Climbing FlightAware
Wed 00:47:57 45.5350 -68.5290 40° Northeast 507 583 31,100  Level FlightAware
Wed 00:48:37 45.6060 -68.4420 41° Northeast 508 585 31,100  Level FlightAware
Wed 00:49:22 45.6840 -68.3480 40° Northeast 510 587 31,100  Level FlightAware
Wed 00:50:02 45.7570 -68.2580 41° Northeast 511 588 31,100  Level FlightAware
Wed 00:50:57 45.8540 -68.1400 40° Northeast 511 588 31,100  Level FlightAware
Wed 00:51:32 45.9060 -68.0760 41° Northeast 31,100  Level FlightAware
Wed 00:52:52 46.0610 -67.8860 40° Northeast 510 587 31,100 -46 Level FlightAware
Wed 00:53:42 46.1430 -67.7840 41° Northeast 512 589 31,000  Descending FlightAware
Wed 00:54:42 46.2520 -67.6500 40° Northeast 514 592 31,100 60 Climbing FlightAware
Wed 00:55:22 46.3140 -67.5740 40° Northeast 514 592 31,100  Level FlightAware
Wed 00:56:02 46.3760 -67.4990 40° Northeast 514 592 31,100  Level FlightAware
Wed 00:56:42 46.4380 -67.4240 40° Northeast 514 592 31,100  Level FlightAware
Wed 00:57:32 46.5150 -67.3290 40° Northeast 514 592 31,100  Level FlightAware
Wed 00:58:12 46.5770 -67.2540 40° Northeast 514 592 31,100  Level FlightAware
Wed 00:58:52 46.6390 -67.1780 40° Northeast 514 592 31,100  Level FlightAware
Wed 00:59:32 46.7010 -67.1020 40° Northeast 514 592 31,100  Level FlightAware
Wed 01:00:12 46.7630 -67.0270 40° Northeast 514 592 31,100  Level FlightAware
Wed 01:01:02 46.8400 -66.9320 40° Northeast 514 592 31,100  Level FlightAware
Wed 01:01:42 46.9020 -66.8560 40° Northeast 514 592 31,100  Level FlightAware
Wed 01:02:22 46.9640 -66.7790 40° Northeast 514 592 31,100  Level FlightAware
Wed 01:03:02 47.0260 -66.7030 40° Northeast 514 592 31,100  Level FlightAware
Wed 01:03:42 47.0880 -66.6270 40° Northeast 514 592 31,100 -70 Level FlightAware
Wed 01:04:28 47.3000 -66.2833 40° Northeast 520 598 31,000 -57 Descending Gander Center
Wed 01:05:28 47.4000 -66.1500 42° Northeast 520 598 31,000  Level Gander Center
Wed 01:06:28 47.5167 -65.9833 44° Northeast 520 598 31,000  Level Gander Center
Wed 01:07:28 47.6167 -65.8500 42° Northeast 520 598 31,000  Level Gander Center
Wed 01:08:28 47.7333 -65.7000 41° Northeast 530 610 31,000 50 Level Gander Center
Wed 01:09:28 47.8333 -65.5667 42° Northeast 520 598 31,100  Climbing Gander Center
Wed 01:10:28 47.9500 -65.4000 44° Northeast 530 610 31,000 -50 Descending Gander Center
Wed 01:11:28 48.0500 -65.2500 45° Northeast 520 598 31,000  Level Gander Center
Wed 01:12:28 48.1500 -65.1167 42° Northeast 520 598 31,000  Level Gander Center
Wed 01:13:28 48.2667 -64.9667 41° Northeast 520 598 31,000 50 Level Gander Center
Wed 01:14:28 48.3667 -64.8333 42° Northeast 520 598 31,100  Climbing Gander Center
Wed 01:15:28 48.4833 -64.6667 43° Northeast 520 598 31,000 -50 Descending Gander Center
Wed 01:16:28 48.5833 -64.5167 45° Northeast 520 598 31,000  Level Gander Center
Wed 01:17:28 48.6833 -64.3667 45° Northeast 520 598 31,000  Level Gander Center
Wed 01:18:28 48.8000 -64.2333 37° Northeast 520 598 31,000  Level Gander Center
Wed 01:19:28 48.9000 -64.0833 45° Northeast 520 598 31,000  Level Gander Center
Wed 01:20:28 49.0000 -63.9333 45° Northeast 520 598 31,000  Level Gander Center
Wed 01:21:28 49.1000 -63.7667 47° Northeast 530 610 31,000  Level Gander Center
Wed 01:22:28 49.2167 -63.6167 40° Northeast 530 610 31,000 150 Level Gander Center
Wed 01:23:28 49.3333 -63.4333 46° Northeast 530 610 31,300 700 Climbing Gander Center
Wed 01:24:28 49.4333 -63.2833 44° Northeast 530 610 32,400 850 Climbing Gander Center
Wed 01:25:28 49.5333 -63.1333 44° Northeast 530 610 33,000 300 Climbing Gander Center
Wed 01:26:28 49.6333 -62.9667 47° Northeast 540 621 33,000  Level Gander Center
Wed 01:27:28 49.7500 -62.8167 40° Northeast 540 621 33,000 50 Level Gander Center
Wed 01:28:28 49.8667 -62.6333 45° Northeast 550 633 33,100  Climbing Gander Center
Wed 01:29:28 49.9667 -62.4833 44° Northeast 540 621 33,000 -50 Descending Gander Center
Wed 01:30:28 50.0833 -62.3000 45° Northeast 550 633 33,000  Level Gander Center
Wed 01:31:28 50.1833 -62.1500 44° Northeast 560 644 33,000  Level Gander Center
Wed 01:32:28 50.3000 -61.9667 45° Northeast 550 633 33,000  Level Gander Center
Wed 01:33:28 50.4000 -61.7833 49° Northeast 550 633 33,000  Level Gander Center
Wed 01:34:28 50.5000 -61.6167 47° Northeast 560 644 33,000  Level Gander Center
Wed 01:35:28 50.6167 -61.4333 45° Northeast 570 656 33,000  Level Gander Center
Wed 01:36:28 50.7333 -61.2500 45° Northeast 570 656 33,000  Level Gander Center
Wed 01:37:28 50.8333 -61.0667 49° Northeast 570 656 33,000  Level Gander Center
Wed 01:38:28 50.9500 -60.9167 39° Northeast 570 656 33,000  Level Gander Center
Wed 01:39:28 51.0667 -60.7167 47° Northeast 570 656 33,000  Level Gander Center
Wed 01:40:28 51.1667 -60.5333 49° Northeast 570 656 33,000  Level Gander Center
Wed 01:41:28 51.2833 -60.3500 44° Northeast 580 667 33,000  Level Gander Center
Wed 01:42:28 51.4000 -60.1500 47° Northeast 580 667 33,000  Level Gander Center
Wed 01:43:28 51.5000 -59.9667 49° Northeast 570 656 33,000  Level Gander Center
Wed 01:44:28 51.6000 -59.7667 51° Northeast 570 656 33,000  Level Gander Center
Wed 01:44:50 51.6333 -59.7000 51° Northeast 570 656 33,000  Level Gander Center
Wed 01:45:16 51.6667 -59.6167 57° Northeast 570 656 33,000  Level Moncton Center
Wed 01:46:16 51.7833 -59.4167 47° Northeast 560 644 33,000  Level Moncton Center
Wed 01:47:28 51.8833 -59.2000 53° Northeast 560 644 33,000  Level Gander Center
Wed 01:48:28 52.0000 -58.9667 51° Northeast 560 644 33,000  Level Gander Center
Wed 01:48:50 52.0333 -58.9167 43° Northeast 560 644 33,000  Level Gander Center
Wed 01:49:28 52.1000 -58.8000 47° Northeast 560 644 33,000  Level Gander Center
Wed 01:50:28 52.2000 -58.5833 53° Northeast 560 644 33,000  Level Gander Center
Wed 01:51:28 52.2833 -58.3833 56° Northeast 570 656 33,000  Level Gander Center
Wed 01:52:28 52.3833 -58.1833 51° Northeast 570 656 33,000  Level Gander Center
Wed 01:53:28 52.4833 -57.9833 51° Northeast 570 656 33,000  Level Gander Center
Wed 01:54:28 52.6000 -57.7500 50° Northeast 570 656 33,000  Level Gander Center
Wed 01:55:28 52.6833 -57.5500 55° Northeast 580 667 33,000  Level Gander Center
Wed 01:56:28 52.7833 -57.3500 50° Northeast 570 656 33,000 50 Level Gander Center
Wed 01:57:28 52.8667 -57.1500 55° Northeast 570 656 33,100  Climbing Gander Center
Wed 01:58:28 52.9833 -56.9167 50° Northeast 570 656 33,000 -50 Descending Gander Center
Wed 01:59:28 53.0833 -56.7167 50° Northeast 570 656 33,000  Level Gander Center
Wed 02:00:28 53.1667 -56.5167 55° Northeast 570 656 33,000  Level Gander Center
Wed 02:01:28 53.2667 -56.3000 52° Northeast 570 656 33,000  Level Gander Center
Wed 02:02:28 53.3500 -56.1000 55° Northeast 570 656 33,000  Level Gander Center
Wed 02:03:28 53.4667 -55.8667 50° Northeast 580 667 33,000  Level Gander Center
Wed 02:04:28 53.5500 -55.6500 57° Northeast 570 656 33,000  Level Gander Center
Wed 02:05:28 53.6333 -55.4167 59° Northeast 580 667 33,000  Level Gander Center
Wed 02:06:28 53.7333 -55.2000 52° Northeast 580 667 33,000  Level Gander Center
Wed 02:07:28 53.8333 -54.9833 52° Northeast 580 667 33,000  Level Gander Center
Wed 02:08:00 53.8667 -54.9667 67° East 558 642 33,000  Level ETMS Enhanced
Wed 02:08:28 53.9000 -54.7500 64° Northeast 570 656 33,000  Level Gander Center
Wed 02:08:46 53.8667 -54.9667 67° East 558 642 33,000  Level ETMS Enhanced
Wed 02:09:28 53.9667 -54.5167 67° East 560 644 33,000  Level Gander Center
Wed 02:10:28 54.0333 -54.2500 67° East 560 644 33,000  Level Gander Center
Wed 02:11:28 54.0667 -54.0333 75° East 570 656 33,000  Level Gander Center
Wed 02:12:28 54.1333 -53.8000 64° Northeast 570 656 33,000  Level Gander Center
Wed 02:13:28 54.1833 -53.5667 70° East 570 656 33,000  Level Gander Center
Wed 02:14:28 54.2500 -53.2833 68° East 570 656 33,000  Level Gander Center
Wed 02:15:28 54.3167 -53.0500 64° Northeast 570 656 33,000  Level Gander Center
Wed 02:16:28 54.3667 -52.7833 72° East 570 656 33,000  Level Gander Center
Wed 02:17:28 54.4333 -52.5333 65° Northeast 570 656 33,000  Level Gander Center
Wed 02:17:50 54.4500 -52.4167 76° East 570 656 33,000  Level Gander Center
Wed 02:18:50 54.5167 -52.1667 65° Northeast 570 656 33,000  Level Gander Center
Wed 02:19:28 54.5500 -52.0167 69° East 570 656 33,000  Level Gander Center
Wed 02:20:28 54.6000 -51.7667 71° East 570 656 33,000  Level Gander Center
Wed 02:20:50 54.6333 -51.6500 64° Northeast 570 656 33,000  Level Gander Center
Wed 02:21:28 54.6667 -51.5000 69° East 570 656 33,000  Level Gander Center
Wed 02:22:28 54.7333 -51.2500 65° Northeast 570 656 33,000  Level Gander Center
Wed 02:24:00 54.8120 -50.8891 69° East  Level FlightAware
Wed 02:29:00 55.0000 -50.0000 66° East 577 664 33,000  Level ETMS Enhanced
Wed 02:31:00 55.1854 -49.2307 67° East  Level FlightAware
Wed 02:32:00 55.2411 -48.9941 67° East  Level FlightAware
Wed 02:33:00 55.2963 -48.7568 68° East  Level FlightAware
Wed 02:34:00 55.3511 -48.5188 68° East  Level FlightAware
Wed 02:35:00 55.4998 -47.9275 68° East 577 664 33,000  Level FlightAware
Wed 02:36:00 55.5598 -47.6648 68° East 577 664 33,000  Level FlightAware
Wed 02:37:00 55.6192 -47.4013 68° East 577 664 33,000  Level FlightAware
Wed 02:38:00 55.6781 -47.1370 69° East 577 664 33,000  Level FlightAware
Wed 02:39:00 55.7364 -46.8719 69° East 577 664 33,000  Level FlightAware
Wed 02:40:00 55.7941 -46.6060 69° East 577 664 33,000  Level FlightAware
Wed 02:41:00 55.8512 -46.3393 69° East 577 664 33,000  Level FlightAware
Wed 02:42:00 55.9078 -46.0719 69° East 577 664 33,000  Level FlightAware
Wed 02:43:00 55.9637 -45.8037 70° East 577 664 33,000  Level FlightAware
Wed 02:44:00 56.0191 -45.5347 70° East 577 664 33,000  Level FlightAware
Wed 02:45:00 56.0740 -45.2649 70° East 577 664 33,000  Level FlightAware
Wed 02:46:00 56.1282 -44.9944 70° East 577 664 33,000  Level FlightAware
Wed 02:47:00 56.1818 -44.7231 71° East 577 664 33,000  Level FlightAware
Wed 02:48:00 56.2348 -44.4510 71° East 577 664 33,000  Level FlightAware
Wed 02:49:00 56.2873 -44.1782 71° East 577 664 33,000  Level FlightAware
Wed 02:50:00 56.3391 -43.9047 71° East 577 664 33,000  Level FlightAware
Wed 02:51:00 56.3903 -43.6304 71° East 577 664 33,000  Level FlightAware
Wed 02:52:00 56.4409 -43.3554 72° East 577 664 33,000  Level FlightAware
Wed 02:53:00 56.4909 -43.0796 72° East 577 664 33,000  Level FlightAware
Wed 02:54:00 56.5403 -42.8032 72° East 577 664 33,000  Level FlightAware
Wed 02:55:00 56.5891 -42.5260 72° East 577 664 33,000  Level FlightAware
Wed 02:56:00 56.6373 -42.2481 73° East 577 664 33,000  Level FlightAware
Wed 02:57:00 56.6848 -41.9695 73° East 577 664 33,000  Level FlightAware
Wed 02:58:00 56.7317 -41.6902 73° East 577 664 33,000  Level FlightAware
Wed 02:59:00 56.7780 -41.4102 73° East 577 664 33,000  Level FlightAware
Wed 03:00:00 56.8237 -41.1295 74° East 577 664 33,000  Level FlightAware
Wed 03:01:00 56.8687 -40.8481 74° East 577 664 33,000  Level FlightAware
Wed 03:02:00 56.9131 -40.5661 74° East 577 664 33,000  Level FlightAware
Wed 03:03:00 56.9569 -40.2834 74° East 577 664 33,000  Level FlightAware
Wed 03:04:00 56.9962 -40.0253 74° East  Level FlightAware
Wed 03:05:00 57.0350 -39.7667 74° East  Level FlightAware
Wed 03:05:00 57.0000 -40.0000 86° East 576 663 33,000  Level ETMS Enhanced
Wed 03:06:00 57.0083 -39.7852 86° East  Level FlightAware
Wed 03:07:00 57.0182 -39.5176 86° East  Level FlightAware
Wed 03:08:00 57.0275 -39.2498 86° East  Level FlightAware
Wed 03:09:00 57.0362 -38.9819 86° East  Level FlightAware
Wed 03:10:00 57.0443 -38.7139 87° East  Level FlightAware
Wed 03:11:00 57.0652 -37.9446 88° East 576 663 33,000  Level FlightAware
Wed 03:12:00 57.0717 -37.6505 88° East 576 663 33,000  Level FlightAware
Wed 03:13:00 57.0776 -37.3562 88° East 576 663 33,000  Level FlightAware
Wed 03:14:00 57.0828 -37.0619 88° East 576 663 33,000  Level FlightAware
Wed 03:15:00 57.0873 -36.7675 89° East 576 663 33,000  Level FlightAware
Wed 03:16:00 57.0911 -36.4730 89° East 576 663 33,000  Level FlightAware
Wed 03:17:00 57.0942 -36.1785 89° East 576 663 33,000  Level FlightAware
Wed 03:18:00 57.0966 -35.8839 89° East 576 663 33,000  Level FlightAware
Wed 03:19:00 57.0983 -35.5893 90° East 576 663 33,000  Level FlightAware
Wed 03:20:00 57.0994 -35.2946 90° East 576 663 33,000  Level FlightAware
Wed 03:21:00 57.0997 -35.0000 90° East 576 663 33,000  Level FlightAware
Wed 03:22:00 57.0994 -34.7054 90° East 576 663 33,000  Level FlightAware
Wed 03:23:00 57.0983 -34.4107 90° East 576 663 33,000  Level FlightAware
Wed 03:24:00 57.0966 -34.1161 91° East 576 663 33,000  Level FlightAware
Wed 03:25:00 57.0942 -33.8215 91° East 576 663 33,000  Level FlightAware
Wed 03:26:00 57.0911 -33.5270 91° East 576 663 33,000  Level FlightAware
Wed 03:27:00 57.0873 -33.2325 91° East 576 663 33,000  Level FlightAware
Wed 03:28:00 57.0828 -32.9381 92° East 576 663 33,000  Level FlightAware
Wed 03:29:00 57.0776 -32.6438 92° East 576 663 33,000  Level FlightAware
Wed 03:30:00 57.0717 -32.3495 92° East 576 663 33,000  Level FlightAware
Wed 03:31:00 57.0652 -32.0554 92° East 576 663 33,000  Level FlightAware
Wed 03:32:00 57.0579 -31.7613 93° East 576 663 33,000  Level FlightAware
Wed 03:33:00 57.0500 -31.4674 93° East 576 663 33,000  Level FlightAware
Wed 03:34:00 57.0414 -31.1736 93° East 576 663 33,000  Level FlightAware
Wed 03:35:00 57.0321 -30.8800 93° East 576 663 33,000  Level FlightAware
Wed 03:36:00 57.0220 -30.5865 94° East 576 663 33,000  Level FlightAware
Wed 03:37:00 57.0114 -30.2932 94° East 576 663 33,000  Level FlightAware
Wed 03:38:00 57.0010 -30.0256 94° East  Level FlightAware
Wed 03:39:00 56.9901 -29.7583 94° East  Level FlightAware
Wed 03:40:00 56.9680 -29.7915 106° East  Level FlightAware
Wed 03:40:00 57.0000 -30.0000 105° East 577 664 33,000  Level ETMS Enhanced
Wed 03:41:00 56.9279 -29.5340 106° East  Level FlightAware
Wed 03:42:00 56.8872 -29.2771 106° East  Level FlightAware
Wed 03:43:00 56.8461 -29.0207 106° East  Level FlightAware
Wed 03:44:00 56.8044 -28.7649 106° East  Level FlightAware
Wed 03:45:00 56.7623 -28.5101 107° East  Level FlightAware
Wed 03:46:00 56.6373 -27.7519 107° East 577 664 33,000  Level FlightAware
Wed 03:47:00 56.5891 -27.4740 108° East 577 664 33,000  Level FlightAware
Wed 03:48:00 56.5403 -27.1968 108° East 577 664 33,000  Level FlightAware
Wed 03:49:00 56.4909 -26.9204 108° East 577 664 33,000  Level FlightAware
Wed 03:50:00 56.4409 -26.6446 108° East 577 664 33,000  Level FlightAware
Wed 03:51:00 56.3903 -26.3696 109° East 577 664 33,000  Level FlightAware
Wed 03:52:00 56.3391 -26.0953 109° East 577 664 33,000  Level FlightAware
Wed 03:53:00 56.2873 -25.8218 109° East 577 664 33,000  Level FlightAware
Wed 03:54:00 56.2348 -25.5490 109° East 577 664 33,000  Level FlightAware
Wed 03:55:00 56.1818 -25.2769 109° East 577 664 33,000  Level FlightAware
Wed 03:56:00 56.1282 -25.0056 110° East 577 664 33,000  Level FlightAware
Wed 03:57:00 56.0740 -24.7351 110° East 577 664 33,000  Level FlightAware
Wed 03:58:00 56.0191 -24.4653 110° East 577 664 33,000  Level FlightAware
Wed 03:59:00 55.9637 -24.1963 110° East 577 664 33,000  Level FlightAware
Wed 04:00:00 55.9078 -23.9281 111° Southeast 577 664 33,000  Level FlightAware
Wed 04:01:00 55.8512 -23.6607 111° Southeast 577 664 33,000  Level FlightAware
Wed 04:02:00 55.7941 -23.3940 111° Southeast 577 664 33,000  Level FlightAware
Wed 04:03:00 55.7364 -23.1281 111° Southeast 577 664 33,000  Level FlightAware
Wed 04:04:00 55.6781 -22.8630 111° Southeast 577 664 33,000  Level FlightAware
Wed 04:05:00 55.6192 -22.5987 112° Southeast 577 664 33,000  Level FlightAware
Wed 04:06:00 55.5598 -22.3352 112° Southeast 577 664 33,000  Level FlightAware
Wed 04:07:00 55.4998 -22.0725 112° Southeast 577 664 33,000  Level FlightAware
Wed 04:08:00 55.4393 -21.8106 112° Southeast 577 664 33,000  Level FlightAware
Wed 04:09:00 55.3782 -21.5495 113° Southeast 577 664 33,000  Level FlightAware
Wed 04:10:00 55.3165 -21.2892 113° Southeast 577 664 33,000  Level FlightAware
Wed 04:11:00 55.2543 -21.0297 113° Southeast 577 664 33,000  Level FlightAware
Wed 04:12:00 55.1915 -20.7711 113° Southeast 577 664 33,000  Level FlightAware
Wed 04:13:00 55.1282 -20.5132 113° Southeast 577 664 33,000  Level FlightAware
Wed 04:14:00 55.0644 -20.2562 114° Southeast 577 664 33,000 Level FlightAware
Wed 04:15:00 55.0059 -20.0232 114° Southeast  Level FlightAware
Wed 04:16:00 54.9469 -19.7909 114° Southeast  Level FlightAware
Wed 04:17:00 54.9755 -19.8011 102° East  Level FlightAware
Wed 04:18:00 54.9445 -19.5530 102° East  Level FlightAware
Wed 04:19:00 54.9130 -19.3052 102° East  Level FlightAware
Wed 04:20:00 54.8810 -19.0579 103° East  Level FlightAware
Wed 04:21:00 54.8485 -18.8109 103° East  Level FlightAware
Wed 04:22:00 54.8155 -18.5644 103° East  Level FlightAware
Wed 04:23:00 54.7820 -18.3183 103° East  Level FlightAware
Wed 04:24:00 54.7480 -18.0725 103° East  Level FlightAware
Wed 04:25:00 54.7134 -17.8272 104° East  Level FlightAware
Wed 04:26:00 54.6784 -17.5823 104° East  Level FlightAware
Wed 04:27:00 54.6429 -17.3379 104° East  Level FlightAware
Wed 04:28:00 54.6070 -17.0938 104° East  Level FlightAware
Wed 04:29:00 54.5705 -16.8502 104° East  Level FlightAware
Wed 04:30:00 54.5335 -16.6070 105° East  Level FlightAware
Wed 04:31:00 54.4961 -16.3643 105° East  Level FlightAware
Wed 04:32:00 54.4581 -16.1220 105° East  Level FlightAware
Wed 04:33:00 54.4197 -15.8802 105° East  Level FlightAware
Wed 04:34:00 54.3808 -15.6388 105° East  Level FlightAware
Wed 04:35:00 54.3414 -15.3979 106° East  Level FlightAware
Wed 04:36:00 54.3016 -15.1575 106° East  Level FlightAware
Wed 04:37:00 54.2612 -14.9175 106° East  Level FlightAware
Wed 04:38:00 54.2204 -14.6780 106° East  Level FlightAware
Wed 04:39:00 54.1791 -14.4390 106° East  Level FlightAware
Wed 04:39:03 53.8710 -13.7480 106° East 551 634 33,100  Level FlightAware
Wed 04:39:43 53.8420 -13.5820 106° East 550 633 33,100  Level FlightAware
Wed 04:40:28 53.8100 -13.3970 106° East 545 627 33,100  Level FlightAware
Wed 04:41:08 53.7800 -13.2290 107° East 542 624 33,100 -71 Level FlightAware
Wed 04:41:53 53.7490 -13.0460 106° East 540 621 33,000  Descending FlightAware
Wed 04:42:33 53.7190 -12.8800 107° East 539 620 33,100  Climbing FlightAware
Wed 04:43:18 53.6860 -12.6910 106° East 539 620 33,000  Descending FlightAware
Wed 04:43:58 53.6580 -12.5380 107° East 538 619 33,100  Climbing FlightAware
Wed 04:45:53 53.5740 -12.0900 107° East 538 619 33,000 -39 Descending FlightAware
Wed 04:46:33 53.5430 -11.9230 107° East 538 619 33,000 75 Level FlightAware
Wed 04:47:13 53.5140 -11.7680 107° East 540 621 33,100 71 Climbing FlightAware
Wed 04:47:58 53.4800 -11.5920 108° East 541 623 33,100  Level FlightAware
Wed 04:48:48 53.4400 -11.3860 108° East 538 619 33,100  Level FlightAware
Wed 04:49:33 53.4060 -11.2130 108° East 533 613 33,100 -67 Level FlightAware
Wed 04:50:18 53.3700 -11.0260 108° East 527 606 33,000  Descending FlightAware
Wed 04:50:53 53.3430 -10.8920 109° East 524 603 33,100  Climbing FlightAware
Wed 04:51:33 53.3140 -10.7460 108° East 522 601 33,000  Descending FlightAware
Wed 04:52:23 53.2740 -10.5470 109° East 521 600 33,100  Climbing FlightAware
Wed 04:52:58 53.2480 -10.4210 109° East 521 600 33,000  Descending FlightAware
Wed 04:53:38 53.2180 -10.2760 109° East 519 597 33,100 67 Climbing FlightAware
Wed 04:54:28 53.1770 -10.0780 109° East 522 601 33,100 -67 Level FlightAware
Wed 04:55:08 53.1450 -9.9210 109° East 523 602 33,000  Descending FlightAware
Wed 04:55:48 53.1120 -9.7660 109° East 519 597 33,100 71 Climbing FlightAware
Wed 04:56:33 53.0780 -9.6060 109° East 520 598 33,100 -75 Level FlightAware
Wed 04:57:08 53.0480 -9.4630 109° East 524 603 33,000  Descending FlightAware
Wed 04:57:58 53.0070 -9.2730 110° East 524 603 33,100 -744 Climbing FlightAware
Wed 04:59:09 52.9460 -8.9925 110° East 510 587 31,500 -1,079 Descending FlightAware
Wed 04:59:27 52.9310 -8.9237 110° East 502 578 31,500 3,750 Level FlightAware
Wed 04:59:33 52.9320 -8.9300 110° East 521 600 33,000  Climbing FlightAware
Wed 04:59:51 52.9117 -8.8348 110° East 502 578 31,500 -2,500 Descending FlightAware
Wed 05:00:09 52.8967 -8.7671 110° East 502 578 31,500  Level FlightAware
Wed 05:00:27 52.8817 -8.6995 110° East 500 575 31,500 2,308 Level FlightAware
Wed 05:00:48 52.8690 -8.6460 110° East 520 598 33,000  Climbing FlightAware
Wed 05:01:03 52.8519 -8.5650 110° East 500 575 31,500 -2,727 Descending FlightAware
Wed 05:01:21 52.8369 -8.4980 110° East 500 575 31,500  Level FlightAware
Wed 05:01:39 52.8218 -8.4309 110° East 498 573 31,500 2,813 Level FlightAware
Wed 05:01:53 52.8150 -8.4030 110° East 523 602 33,000  Climbing FlightAware
Wed 05:02:09 52.7963 -8.3176 110° East 500 575 31,500 -2,647 Descending FlightAware
Wed 05:02:27 52.7813 -8.2499 110° East 498 573 31,500  Level FlightAware
Wed 05:02:45 52.7661 -8.1822 110° East 502 578 31,500  Level FlightAware
Wed 05:03:03 52.7509 -8.1145 110° East 500 575 31,500 2,727 Level FlightAware
Wed 05:03:18 52.7410 -8.0770 110° East 521 600 33,000  Climbing FlightAware
Wed 05:03:33 52.7249 -8.0022 110° East 502 578 31,500 -2,727 Descending FlightAware
Wed 05:03:51 52.7093 -7.9351 111° Southeast 504 580 31,500  Level FlightAware
Wed 05:04:09 52.6937 -7.8682 111° Southeast 504 580 31,500 3,333 Level FlightAware
Wed 05:04:18 52.6880 -7.8460 111° Southeast 524 603 33,000  Climbing FlightAware
Wed 05:04:33 52.6728 -7.7790 111° Southeast 504 580 31,500 -2,727 Descending FlightAware
Wed 05:04:51 52.6572 -7.7120 111° Southeast 506 582 31,500 3,840 Level FlightAware
Wed 05:04:58 52.6560 -7.7120 111° Southeast 523 602 33,100  Climbing FlightAware
Wed 05:05:15 52.6365 -7.6228 111° Southeast 498 573 31,500 -2,743 Descending FlightAware
Wed 05:05:33 52.6209 -7.5558 111° Southeast 506 582 31,500 3,429 Level FlightAware
Wed 05:05:43 52.6160 -7.5370 111° Southeast 526 605 33,100  Climbing FlightAware
Wed 05:06:03 52.5947 -7.4444 111° Southeast 504 580 31,500  Descending FlightAware
Wed 05:06:23 52.5800 -7.3850 111° Southeast 525 604 33,100  Climbing FlightAware
Wed 05:06:39 52.5629 -7.3108 111° Southeast 508 585 31,500 -2,824 Descending FlightAware
Wed 05:06:57 52.5470 -7.2440 111° Southeast 508 585 31,500 3,750 Level FlightAware
Wed 05:07:03 52.5440 -7.2330 111° Southeast 523 602 33,000  Climbing FlightAware
Wed 05:07:22 52.5256 -7.1544 111° Southeast 508 585 31,500 -2,432 Descending FlightAware
Wed 05:07:40 52.5098 -7.0880 111° Southeast 512 589 31,500 3,462 Level FlightAware
Wed 05:07:48 52.5040 -7.0700 111° Southeast 520 598 33,000  Climbing FlightAware
Wed 05:08:04 52.4886 -6.9998 111° Southeast 508 585 31,500 -2,647 Descending FlightAware
Wed 05:08:22 52.4727 -6.9342 112° Southeast 504 580 31,500 3,750 Level FlightAware
Wed 05:08:28 52.4690 -6.9210 112° Southeast 517 595 33,000  Climbing FlightAware
Wed 05:08:52 52.4462 -6.8253 112° Southeast 500 575 31,500 150 Descending FlightAware
Wed 05:09:08 52.4360 -6.7860 112° Southeast 519 597 33,100  Climbing FlightAware
Wed 05:09:40 52.4039 -6.6507 112° Southeast 504 580 31,500  Descending FlightAware
Wed 05:09:53 52.3940 -6.6110 112° Southeast 520 598 33,100  Climbing FlightAware
Wed 05:10:22 52.3665 -6.4976 112° Southeast 502 578 31,500 -171 Descending FlightAware
Wed 05:10:28 52.3640 -6.4900 112° Southeast 519 597 33,000  Climbing FlightAware
Wed 05:10:58 52.3339 -6.3669 112° Southeast 504 580 31,500 120 Descending FlightAware
Wed 05:11:18 52.3170 -6.3020 112° Southeast 519 597 33,100  Climbing FlightAware
Wed 05:11:34 52.3013 -6.2362 112° Southeast 506 582 31,500  Descending FlightAware
Wed 05:11:58 52.2820 -6.1600 112° Southeast 519 597 33,100  Climbing FlightAware
Wed 05:12:16 52.2632 -6.0842 112° Southeast 506 582 31,500 -2,667 Descending FlightAware
Wed 05:12:34 52.2469 -6.0192 112° Southeast 506 582 31,500 4,364 Level FlightAware
Wed 05:12:38 52.2460 -6.0160 112° Southeast 518 596 33,100  Climbing FlightAware
Wed 05:12:58 52.2248 -5.9320 112° Southeast 506 582 31,500  Descending FlightAware
Wed 05:13:23 52.2040 -5.8500 112° Southeast 517 595 33,100  Climbing FlightAware
Wed 05:13:40 52.1864 -5.7809 112° Southeast 506 582 31,500 -2,743 Descending FlightAware
Wed 05:13:58 52.1699 -5.7163 113° Southeast 506 582 31,500 4,174 Level FlightAware
Wed 05:14:03 52.1670 -5.7060 113° Southeast 516 594 33,100  Climbing FlightAware
Wed 05:14:34 52.1369 -5.5873 113° Southeast 504 580 31,500  Descending FlightAware
Wed 05:14:48 52.1260 -5.5480 113° Southeast 515 593 33,100  Climbing FlightAware
Wed 05:15:04 52.1092 -5.4794 113° Southeast 510 587 31,500 -2,824 Descending FlightAware
Wed 05:15:22 52.0928 -5.4159 113° Southeast 508 585 31,500 3,750 Level FlightAware
Wed 05:15:28 52.0890 -5.4020 113° Southeast 514 592 33,000  Climbing FlightAware
Wed 05:15:46 52.0704 -5.3299 113° Southeast 506 582 31,500 -2,500 Descending FlightAware
Wed 05:16:04 52.0539 -5.2661 113° Southeast 506 582 31,500 4,364 Level FlightAware
Wed 05:16:08 52.0530 -5.2610 113° Southeast 511 588 33,100  Climbing FlightAware
Wed 05:16:28 52.0317 -5.1812 113° Southeast 504 580 31,500 -2,526 Descending FlightAware
Wed 05:16:46 52.0151 -5.1177 113° Southeast 504 580 31,500 3,600 Level FlightAware
Wed 05:16:53 52.0100 -5.0980 113° Southeast 512 589 33,000  Climbing FlightAware
Wed 05:17:22 51.9890 -4.9869 113° Southeast 506 582 31,500  Descending FlightAware
Wed 05:17:33 51.9850 -4.9590 113° Southeast 509 586 33,000  Climbing FlightAware
Wed 05:18:04 51.9704 -4.8297 113° Southeast 504 580 31,500 133 Descending FlightAware
Wed 05:18:18 51.9660 -4.7900 113° Southeast 508 585 33,100  Climbing FlightAware
Wed 05:18:34 51.9574 -4.7177 113° Southeast 500 575 31,500  Descending FlightAware
Wed 05:18:58 51.9480 -4.6400 113° Southeast 508 585 33,100  Climbing FlightAware
Wed 05:19:34 51.9313 -4.4932 113° Southeast 504 580 31,500 -133 Descending FlightAware
Wed 05:19:43 51.9280 -4.4650 113° Southeast 510 587 33,000  Climbing FlightAware
Wed 05:19:58 51.9205 -4.4033 113° Southeast 504 580 31,500 -2,727 Descending FlightAware
Wed 05:20:16 51.9121 -4.3352 101° East 502 578 31,500 3,840 Level FlightAware
Wed 05:20:23 51.9090 -4.3190 101° East 509 586 33,100  Climbing FlightAware
Wed 05:20:52 51.8896 -4.2028 101° East 504 580 31,500 -133 Descending FlightAware
Wed 05:21:08 51.8820 -4.1540 101° East 509 586 33,000  Climbing FlightAware
Wed 05:21:34 51.8644 -4.0483 101° East 506 582 31,500 150 Descending FlightAware
Wed 05:21:48 51.8570 -4.0060 101° East 510 587 33,100  Climbing FlightAware
Wed 05:22:04 51.8467 -3.9377 101° East 506 582 31,500  Descending FlightAware
Wed 05:22:34 51.8287 -3.8293 101° East 510 587 33,100 1,500 Climbing FlightAware
Wed 05:23:08 51.8100 -3.7120 104° East 510 587 33,100 -140 Level FlightAware
Wed 05:23:17 51.8032 -3.6712 105° East 510 587 33,000 -3,692 Descending FlightAware
Wed 05:23:34 51.7930 -3.6056 105° East 504 580 31,500 167 Descending FlightAware
Wed 05:23:53 51.7840 -3.5500 105° East 510 587 33,100 2,909 Climbing FlightAware
Wed 05:24:07 51.7738 -3.4872 105° East 510 587 33,100 -3,310 Level FlightAware
Wed 05:24:22 51.7648 -3.4289 105° East 504 580 31,500 -2,909 Descending FlightAware
Wed 05:24:40 51.7543 -3.3626 104° East 504 580 31,500  Level FlightAware
Wed 05:24:59 51.7437 -3.2957 104° East 506 582 31,500 2,308 Level FlightAware
Wed 05:25:19 51.7340 -3.2255 104° East 510 587 33,000 1,684 Climbing FlightAware
Wed 05:25:56 51.7203 -3.0868 99° East 510 587 33,100 136 Climbing FlightAware
Wed 05:26:03 51.7178 -3.0570 98° East 509 586 33,100 -3,556 Level FlightAware
Wed 05:26:23 51.7109 -2.9810 98° East 504 580 31,500  Descending FlightAware
Wed 05:26:33 51.7079 -2.9446 98° East 509 586 33,100 2,341 Climbing FlightAware
Wed 05:27:04 51.6983 -2.8321 98° East 509 586 33,100  Level FlightAware
Wed 05:27:39 51.6868 -2.6969 98° East 509 586 33,100 -1,745 Level FlightAware
Wed 05:27:59 51.6802 -2.6197 98° East 504 580 31,500 -188 Descending FlightAware
Wed 05:28:11 51.6763 -2.5771 98° East 508 585 33,000  Climbing FlightAware
Wed 05:28:29 51.6704 -2.5081 98° East 504 580 31,500 194 Descending FlightAware
Wed 05:28:42 51.6663 -2.4615 98° East 508 585 33,100 2,233 Climbing FlightAware
Wed 05:29:12 51.6563 -2.3491 98° East 508 585 33,100 -1,811 Level FlightAware
Wed 05:29:35 51.6485 -2.2608 98° East 506 582 31,500  Descending FlightAware
Wed 05:29:43 51.6460 -2.2370 98° East 508 585 33,100  Climbing FlightAware
Wed 05:29:59 51.6403 -2.1712 98° East 506 582 31,500  Descending FlightAware
Wed 05:30:13 51.6353 -2.1213 98° East 508 585 33,100  Climbing FlightAware
Wed 05:30:29 51.6298 -2.0583 98° East 504 580 31,500  Descending FlightAware
Wed 05:30:45 51.6243 -2.0017 98° East 509 586 33,100 2,043 Climbing FlightAware
Wed 05:31:16 51.6134 -1.8857 99° East 510 587 33,100 -1,882 Level FlightAware
Wed 05:31:36 51.6067 -1.8111 99° East 502 578 31,500  Descending FlightAware
Wed 05:31:46 51.6028 -1.7738 99° East 510 587 33,100 2,195 Climbing FlightAware
Wed 05:32:17 51.5919 -1.6579 99° East 510 587 33,000 -1,920 Descending FlightAware
Wed 05:32:36 51.5851 -1.5867 99° East 504 580 31,500  Descending FlightAware
Wed 05:32:48 51.5808 -1.5418 99° East 510 587 33,000 2,143 Climbing FlightAware
Wed 05:33:18 51.5698 -1.4300 99° East 509 586 33,000 -1,875 Level FlightAware
Wed 05:33:36 51.5634 -1.3618 99° East 502 578 31,500 200 Descending FlightAware
Wed 05:33:48 51.5588 -1.3181 99° East 509 586 33,100 2,182 Climbing FlightAware
Wed 05:34:20 51.5472 -1.2023 99° East 509 586 33,100 -2,000 Level FlightAware
Wed 05:34:36 51.5411 -1.1374 99° East 504 580 31,500  Descending FlightAware
Wed 05:34:52 51.5350 -1.0794 99° East 509 586 33,100  Climbing FlightAware
Wed 05:35:12 51.5274 -1.0032 99° East 502 578 31,500 -194 Descending FlightAware
Wed 05:35:23 51.5234 -0.9641 99° East 509 586 33,000 2,195 Climbing FlightAware
Wed 05:35:53 51.5119 -0.8526 99° East 509 586 33,000 100 Level FlightAware
Wed 05:36:23 51.5002 -0.7407 99° East 510 587 33,100 120 Climbing FlightAware
Wed 05:36:43 51.4929 -0.6660 99° East 511 588 33,100  Level FlightAware
Wed 05:37:14 51.4840 -0.5493 97° East 512 589 33,100 -95 Level FlightAware
Wed 05:37:46 51.4757 -0.4285 96° East 513 590 33,000  Descending FlightAware
Wed 05:38:17 51.4676 -0.3117 96° East 513 590 33,100 92 Climbing FlightAware
Wed 05:38:51 51.4587 -0.1871 96° East 513 590 33,100  Level FlightAware
Wed 05:39:23 51.4501 -0.0623 96° East 514 592 33,100  Level FlightAware
Wed 05:39:54 51.4423 0.0547 96° East 515 593 33,100 -1,920 Level FlightAware
Wed 05:40:13 51.4373 0.1270 96° East 502 578 31,500  Descending FlightAware
Wed 05:40:25 51.4341 0.1682 96° East 515 593 33,100  Climbing FlightAware
Wed 05:40:49 51.4276 0.2643 96° East 504 580 31,500  Descending FlightAware
Wed 05:40:59 51.4254 0.2969 96° East 515 593 33,100 2,286 Climbing FlightAware
Wed 05:41:31 51.4178 0.4181 96° East 513 590 33,100 -1,920 Level FlightAware
Wed 05:41:49 51.4132 0.4921 96° East 498 573 31,500  Descending FlightAware
Wed 05:42:01 51.4102 0.5349 96° East 513 590 33,100  Climbing FlightAware
Wed 05:42:19 51.4055 0.6052 96° East 504 580 31,500  Descending FlightAware
Wed 05:42:34 51.4022 0.6596 96° East 512 589 33,100 1,875 Climbing FlightAware
Wed 05:43:07 51.3930 0.7828 97° East 507 583 33,000 -1,882 Descending FlightAware
Wed 05:43:25 51.3856 0.8515 97° East 498 573 31,500 176 Descending FlightAware
Wed 05:43:41 51.3782 0.9076 97° East 504 580 33,100  Climbing FlightAware
Wed 05:44:01 51.3681 0.9830 97° East 502 578 31,500  Descending FlightAware
Wed 05:44:19 51.3589 1.0409 97° East 499 574 33,100  Climbing FlightAware
Wed 05:44:38 51.3484 1.1125 97° East 500 575 31,500  Descending FlightAware
Wed 05:44:52 51.3408 1.1584 97° East 495 570 33,100  Climbing FlightAware
Wed 05:45:20 51.3252 1.2611 97° East 496 571 31,500 -1,846 Descending FlightAware
Wed 05:45:44 51.3116 1.3454 104° East 496 571 31,500 2,526 Level FlightAware
Wed 05:45:58 51.3060 1.3840 104° East 490 564 33,100  Climbing FlightAware
Wed 05:46:20 51.2913 1.4715 104° East 490 564 31,500 -2,400 Descending FlightAware
Wed 05:46:38 51.2812 1.5352 104° East 488 562 31,500 5,333 Level FlightAware
Wed 05:46:38 51.2820 1.5270 104° East 492 566 33,100  Climbing FlightAware
Wed 05:46:56 51.2711 1.5983 104° East 488 562 31,500  Descending FlightAware
Wed 05:47:23 51.2490 1.6800 104° East 485 558 33,100 1,875 Climbing FlightAware
Wed 05:47:44 51.2296 1.7522 113° Southeast 485 558 33,000 -2,462 Descending FlightAware
Wed 05:48:02 51.2132 1.8162 113° Southeast 500 575 31,500 128 Descending FlightAware
Wed 05:48:31 51.1873 1.9084 113° Southeast 482 555 33,100 2,286 Climbing FlightAware
Wed 05:48:44 51.1728 1.9470 121° Southeast 468 539 33,100 -109 Level FlightAware
Wed 05:49:26 51.1215 2.0647 125° Southeast 462 532 33,000 -1,600 Descending FlightAware
Wed 05:49:44 51.0990 2.1165 125° Southeast 494 568 31,500 188 Descending FlightAware
Wed 05:49:58 51.0836 2.1542 125° Southeast 461 531 33,100 1,831 Climbing FlightAware
Wed 05:50:43 51.0304 2.2813 124° Southeast 461 531 33,300 -474 Climbing FlightAware
Wed 05:51:14 50.9994 2.3800 124° Southeast 500 575 32,500 1,320 Descending FlightAware
Wed 05:51:33 50.9850 2.4290 124° Southeast 476 548 34,400 4,059 Climbing FlightAware
Wed 05:51:48 50.9684 2.4857 115° Southeast 477 549 34,800 894 Climbing FlightAware
Wed 05:52:20 50.9387 2.5866 115° Southeast 475 547 35,100 171 Climbing FlightAware
Wed 05:52:58 50.9110 2.6810 115° Southeast 472 543 35,000 -1,600 Descending FlightAware
Wed 05:53:20 50.8891 2.7829 115° Southeast 494 568 33,500  Descending FlightAware
Wed 05:53:43 50.8785 2.8612 115° Southeast 475 547 35,000 1,524 Climbing FlightAware
Wed 05:54:23 50.8690 2.9830 97° East 493 567 35,100 75 Climbing FlightAware
Wed 05:55:03 50.8590 3.1160 97° East 494 568 35,100 -1,684 Level FlightAware
Wed 05:55:20 50.8517 3.2119 97° East 488 562 33,500  Descending FlightAware
Wed 05:55:43 50.8470 3.2710 97° East 496 571 35,100 1,412 Climbing FlightAware
Wed 05:56:28 50.8350 3.4330 97° East 498 573 35,100  Level FlightAware
Wed 05:57:08 50.8230 3.5810 97° East 500 575 35,100 -71 Level FlightAware
Wed 05:57:53 50.8070 3.7320 99° East 493 567 35,000 -1,455 Descending FlightAware
Wed 05:58:14 50.7949 3.8380 99° East 500 575 33,500  Descending FlightAware
Wed 05:58:33 50.7880 3.8910 99° East 491 565 35,000 1,500 Climbing FlightAware
Wed 05:59:18 50.7690 4.0520 101° East 486 559 35,100 71 Climbing FlightAware
Wed 05:59:58 50.7520 4.1870 101° East 483 556 35,100 -1,548 Level FlightAware
Wed 06:00:20 50.7418 4.2769 101° East 486 559 33,500  Descending FlightAware
Wed 06:00:38 50.7350 4.3290 101° East 482 555 35,100 1,429 Climbing FlightAware
Wed 06:01:23 50.7170 4.4740 101° East 482 555 35,000  Descending FlightAware
Wed 06:02:03 50.6990 4.6190 101° East 485 558 35,100 75 Climbing FlightAware
Wed 06:02:43 50.6810 4.7640 101° East 485 558 35,100  Level FlightAware
Wed 06:03:28 50.6610 4.9090 102° East 480 552 35,100  Level FlightAware
Wed 06:04:13 50.6240 5.0410 114° Southeast 469 540 35,100  Level FlightAware
Wed 06:05:08 50.5500 5.2030 126° Southeast 462 532 35,100  Level FlightAware
Wed 06:05:48 50.5010 5.3060 127° Southeast 464 534 35,100  Level FlightAware
Wed 06:06:28 50.4470 5.4180 127° Southeast 465 535 35,100 -71 Level FlightAware
Wed 06:07:13 50.3880 5.5430 126° Southeast 468 539 35,000  Descending FlightAware
Wed 06:07:53 50.3400 5.6520 125° Southeast 470 541 35,100 75 Climbing FlightAware
Wed 06:08:33 50.2890 5.7670 125° Southeast 471 542 35,100  Level FlightAware
Wed 06:09:18 50.2340 5.8920 124° Southeast 471 542 35,100  Level FlightAware
Wed 06:09:58 50.1840 6.0010 126° Southeast 473 544 35,100 -75 Level FlightAware
Wed 06:10:38 50.1330 6.1120 126° Southeast 474 545 35,000  Descending FlightAware
Wed 06:11:18 50.0870 6.2150 125° Southeast 474 545 35,100 67 Climbing FlightAware
Wed 06:12:08 50.0220 6.3570 125° Southeast 475 547 35,100  Level FlightAware
Wed 06:12:48 49.9720 6.4650 126° Southeast 475 547 35,100  Level FlightAware
Wed 06:13:23 49.9280 6.5620 125° Southeast 476 548 35,100  Level FlightAware
Wed 06:14:13 49.8610 6.7070 126° Southeast 478 550 35,100  Level FlightAware
Wed 06:14:53 49.8100 6.8180 125° Southeast 473 544 35,100 -71 Level FlightAware
Wed 06:15:38 49.7530 6.9370 127° Southeast 478 550 35,000  Descending FlightAware
Wed 06:16:18 49.7000 7.0500 126° Southeast 478 550 35,100 71 Climbing FlightAware
Wed 06:17:03 49.6410 7.1770 126° Southeast 479 551 35,100  Level FlightAware
Wed 06:17:43 49.5890 7.2870 126° Southeast 478 550 35,100  Level FlightAware
Wed 06:18:23 49.5420 7.3860 126° Southeast 476 548 35,100  Level FlightAware
Wed 06:19:03 49.4840 7.4930 130° Southeast 475 547 35,100  Level FlightAware
Wed 06:19:43 49.4240 7.5950 132° Southeast 474 545 35,100  Level FlightAware
Wed 06:20:28 49.3530 7.7130 133° Southeast 473 544 35,100  Level FlightAware
Wed 06:21:13 49.2830 7.8260 133° Southeast 473 544 35,100  Level FlightAware
Wed 06:21:48 49.2360 7.9010 134° Southeast 474 545 35,100  Level FlightAware
Wed 06:22:38 49.1550 8.0340 133° Southeast 476 548 35,100 -67 Level FlightAware
Wed 06:23:18 49.0960 8.1290 133° Southeast 472 543 35,000  Descending FlightAware
Wed 06:25:00 48.9698 8.4536 121° Southeast  Level Estimated
Wed 06:25:38 48.8890 8.4650 121° Southeast 479 551 35,100  Level FlightAware
Wed 06:28:00 48.7124 8.9140 121° Southeast  Level Estimated
Wed 06:28:53 48.5880 8.9340 121° Southeast 478 550 35,000  Level FlightAware
Wed 06:29:33 48.5200 9.0230 139° Southeast 477 549 35,000 75 Level FlightAware
Wed 06:30:13 48.4510 9.1040 142° Southeast 471 542 35,100 71 Climbing FlightAware
Wed 06:30:58 48.3720 9.1960 142° Southeast 471 542 35,100  Level FlightAware
Wed 06:31:43 48.2970 9.2850 142° Southeast 471 542 35,100 -71 Level FlightAware
Wed 06:32:23 48.2290 9.3640 142° Southeast 470 541 35,000  Descending FlightAware
Wed 06:32:58 48.1640 9.4420 141° Southeast 470 541 35,100  Climbing FlightAware
Wed 06:33:48 48.0710 9.5490 142° Southeast 477 549 35,000 -67 Descending FlightAware
Wed 06:34:28 48.0020 9.6290 142° Southeast 479 551 35,000 80 Level FlightAware
Wed 06:35:03 47.9440 9.6980 141° Southeast 480 552 35,100  Climbing FlightAware
Wed 06:35:53 47.8610 9.7940 142° Southeast 477 549 35,000  Descending FlightAware
Wed 06:36:33 47.7990 9.8650 142° Southeast 485 558 35,100 75 Climbing FlightAware
Wed 06:37:13 47.7250 9.9490 143° Southeast 486 559 35,100 -80 Level FlightAware
Wed 06:37:48 47.6610 10.0230 142° Southeast 487 560 35,000 -80 Descending FlightAware
Wed 06:38:28 47.5890 10.1060 142° Southeast 486 559 35,000 75 Level FlightAware
Wed 06:39:08 47.5170 10.1870 143° Southeast 487 560 35,100  Climbing FlightAware
Wed 06:39:53 47.4240 10.2930 142° Southeast 487 560 35,000  Descending FlightAware
Wed 06:40:33 47.3520 10.3740 143° Southeast 487 560 35,100  Climbing FlightAware
Wed 06:41:18 47.2750 10.4600 143° Southeast 486 559 35,000 -71 Descending FlightAware
Wed 06:41:58 47.2060 10.5460 140° Southeast 492 566 35,000  Level FlightAware
Wed 06:42:43 47.1360 10.6550 133° Southeast 493 567 35,000  Level FlightAware
Wed 06:43:23 47.0760 10.7460 134° Southeast 487 560 35,000  Level FlightAware
Wed 06:44:03 47.0060 10.8500 135° Southeast 495 570 35,000  Level FlightAware
Wed 06:44:48 46.9370 10.9560 134° Southeast 493 567 35,000  Level FlightAware
Wed 06:45:28 46.8730 11.0530 134° Southeast 493 567 35,000 75 Level FlightAware
Wed 06:46:08 46.8100 11.1500 133° Southeast 495 570 35,100 71 Climbing FlightAware
Wed 06:46:53 46.7340 11.2650 134° Southeast 496 571 35,100  Level FlightAware
Wed 06:47:33 46.6690 11.3620 134° Southeast 498 573 35,100 -71 Level FlightAware
Wed 06:48:18 46.5970 11.4700 134° Southeast 505 581 35,000 -71 Descending FlightAware
Wed 06:48:58 46.5320 11.5680 134° Southeast 509 586 35,000 80 Level FlightAware
Wed 06:49:33 46.4740 11.6530 135° Southeast 510 587 35,100  Climbing FlightAware
Wed 06:50:23 46.3920 11.7780 134° Southeast 511 588 35,000  Descending FlightAware
Wed 06:50:58 46.3360 11.8590 135° Southeast 511 588 35,100 71 Climbing FlightAware
Wed 06:51:48 46.2510 11.9860 134° Southeast 507 583 35,100 -67 Level FlightAware
Wed 06:52:28 46.1850 12.0840 134° Southeast 509 586 35,000  Descending FlightAware
Wed 06:53:13 46.1100 12.1920 135° Southeast 510 587 35,100  Climbing FlightAware
Wed 06:53:53 46.0410 12.2920 135° Southeast 510 587 35,000 -75 Descending FlightAware
Wed 06:54:33 45.9740 12.3900 135° Southeast 512 589 35,000  Level FlightAware
Wed 06:55:18 45.8990 12.4980 135° Southeast 515 593 35,000 60 Level FlightAware
Wed 06:56:13 45.8060 12.6340 134° Southeast 520 598 35,100 63 Climbing FlightAware
Wed 06:56:53 45.7370 12.7370 134° Southeast 528 608 35,100 -71 Level FlightAware
Wed 06:57:38 45.6620 12.8490 134° Southeast 531 611 35,000 -60 Descending FlightAware
Wed 06:58:33 45.5700 12.9860 134° Southeast 533 613 35,000  Level FlightAware
Wed 06:59:08 45.5100 13.0770 133° Southeast 532 612 35,000  Level FlightAware
Wed 06:59:58 45.4250 13.2090 133° Southeast 539 620 35,000 75 Level FlightAware
Wed 07:00:28 45.3800 13.2900 128° Southeast 537 618 35,100 71 Climbing FlightAware
Wed 07:01:23 45.2970 13.4470 127° Southeast 543 625 35,100  Level FlightAware
Wed 07:02:03 45.2360 13.5650 126° Southeast 545 627 35,100 -75 Level FlightAware
Wed 07:02:43 45.1770 13.6760 127° Southeast 545 627 35,000  Descending FlightAware
Wed 07:03:28 45.1120 13.7990 127° Southeast 545 627 35,100 80 Climbing FlightAware
Wed 07:03:58 45.0630 13.8940 126° Southeast 541 623 35,100  Level FlightAware
Wed 07:04:53 44.9800 14.0470 127° Southeast 541 623 35,100  Level FlightAware
Wed 07:05:43 44.9060 14.1870 127° Southeast 542 624 35,100 -67 Level FlightAware
Wed 07:06:23 44.8470 14.2980 127° Southeast 543 625 35,000 -71 Descending FlightAware
Wed 07:07:08 44.7760 14.4290 127° Southeast 543 625 35,000 75 Level FlightAware
Wed 07:07:43 44.7410 14.4940 127° Southeast 548 631 35,100  Climbing FlightAware
Wed 07:08:33 44.6510 14.6610 127° Southeast 541 623 35,000  Descending FlightAware
Wed 07:09:08 44.5950 14.7620 128° Southeast 542 624 35,100 75 Climbing FlightAware
Wed 07:09:53 44.5230 14.8940 127° Southeast 543 625 35,100  Level FlightAware
Wed 07:10:43 44.4440 15.0380 128° Southeast 549 632 35,100  Level FlightAware
Wed 07:11:23 44.3880 15.1390 128° Southeast 549 632 35,100  Level FlightAware
Wed 07:12:03 44.3210 15.2590 128° Southeast 549 632 35,100 -71 Level FlightAware
Wed 07:12:48 44.2530 15.3820 128° Southeast 549 632 35,000  Descending FlightAware
Wed 07:13:28 44.1870 15.5000 128° Southeast 548 631 35,100  Climbing FlightAware
Wed 07:14:08 44.1290 15.6020 128° Southeast 548 631 35,000  Descending FlightAware
Wed 07:14:53 44.0540 15.7350 128° Southeast 546 628 35,100 71 Climbing FlightAware
Wed 07:15:33 43.9930 15.8430 128° Southeast 545 627 35,100  Level FlightAware
Wed 07:16:18 43.9230 15.9660 128° Southeast 546 628 35,100 -71 Level FlightAware
Wed 07:16:58 43.8590 16.0790 128° Southeast 546 628 35,000  Descending FlightAware
Wed 07:17:38 43.7960 16.1880 129° Southeast 546 628 35,100  Climbing FlightAware
Wed 07:18:23 43.7250 16.3110 129° Southeast 546 628 35,000  Descending FlightAware
Wed 07:19:03 43.6620 16.4200 129° Southeast 547 629 35,100 71 Climbing FlightAware
Wed 07:19:48 43.5930 16.5400 128° Southeast 547 629 35,100  Level FlightAware
Wed 07:20:28 43.5290 16.6520 128° Southeast 542 624 35,100 -75 Level FlightAware
Wed 07:21:08 43.4650 16.7610 129° Southeast 544 626 35,000  Descending FlightAware
Wed 07:21:53 43.3940 16.8830 129° Southeast 544 626 35,100 71 Climbing FlightAware
Wed 07:22:33 43.3290 16.9910 130° Southeast 543 625 35,100  Level FlightAware
Wed 07:23:18 43.2580 17.1100 129° Southeast 542 624 35,100  Level FlightAware
Wed 07:23:58 43.1930 17.2200 129° Southeast 541 623 35,100 -75 Level FlightAware
Wed 07:24:38 43.1300 17.3270 129° Southeast 540 621 35,000 -71 Descending FlightAware
Wed 07:25:23 43.0580 17.4470 129° Southeast 540 621 35,000 71 Level FlightAware
Wed 07:26:03 42.9950 17.5510 130° Southeast 540 621 35,100  Climbing FlightAware
Wed 07:26:48 42.9250 17.6680 129° Southeast 539 620 35,000 -71 Descending FlightAware
Wed 07:27:28 42.8590 17.7790 129° Southeast 541 623 35,000 75 Level FlightAware
Wed 07:28:08 42.7930 17.8850 130° Southeast 541 623 35,100  Climbing FlightAware
Wed 07:28:53 42.7230 18.0020 129° Southeast 542 624 35,000  Descending FlightAware
Wed 07:29:48 42.6380 18.1400 130° Southeast 542 624 35,100  Climbing FlightAware
Wed 07:31:38 42.4390 18.4310 133° Southeast 544 626 35,000  Descending FlightAware
Wed 07:32:18 42.3690 18.5240 136° Southeast 545 627 35,100  Climbing FlightAware
Wed 07:33:03 42.2900 18.6300 135° Southeast 547 629 35,000  Descending FlightAware
Wed 07:33:43 42.2180 18.7290 134° Southeast 548 631 35,100 71 Climbing FlightAware
Wed 07:34:28 42.1360 18.8370 136° Southeast 548 631 35,100  Level FlightAware
Wed 07:35:08 42.0640 18.9330 135° Southeast 548 631 35,100  Level FlightAware
Wed 07:35:48 41.9900 19.0310 135° Southeast 548 631 35,100  Level FlightAware
Wed 07:36:38 41.9000 19.1500 135° Southeast 550 633 35,100  Level FlightAware
Wed 07:37:18 41.8330 19.2390 135° Southeast 550 633 35,100  Level FlightAware
Wed 07:37:58 41.7530 19.3370 138° Southeast 549 632 35,100  Level FlightAware
Wed 07:38:43 41.6690 19.4340 139° Southeast 549 632 35,100  Level FlightAware
Wed 07:39:18 41.5990 19.5120 140° Southeast 549 632 35,100 -75 Level FlightAware
Wed 07:40:03 41.5170 19.6040 140° Southeast 550 633 35,000 -67 Descending FlightAware
Wed 07:40:48 41.4250 19.7100 139° Southeast 552 635 35,000  Level FlightAware
Wed 07:41:28 41.3500 19.8040 137° Southeast 554 638 35,000 71 Level FlightAware
Wed 07:42:13 41.2700 19.9140 134° Southeast 555 639 35,100 71 Climbing FlightAware
Wed 07:42:53 41.1980 20.0110 135° Southeast 555 639 35,100 -75 Level FlightAware
Wed 07:43:33 41.1260 20.1080 135° Southeast 554 638 35,000  Descending FlightAware
Wed 07:44:18 41.0430 20.2190 135° Southeast 554 638 35,100  Climbing FlightAware
Wed 07:44:58 40.9720 20.3120 135° Southeast 553 636 35,000  Descending FlightAware
Wed 07:45:43 40.8920 20.4180 135° Southeast 553 636 35,100 71 Climbing FlightAware
Wed 07:46:23 40.8190 20.5130 135° Southeast 553 636 35,100 -75 Level FlightAware
Wed 07:47:03 40.7470 20.6080 135° Southeast 553 636 35,000  Descending FlightAware
Wed 07:47:43 40.6850 20.6890 135° Southeast 553 636 35,100 71 Climbing FlightAware
Wed 07:48:28 40.6050 20.7940 135° Southeast 553 636 35,100  Level FlightAware
Wed 07:49:08 40.5430 20.8740 136° Southeast 553 636 35,100 -71 Level FlightAware
Wed 07:49:53 40.4370 21.0080 136° Southeast 553 636 35,000  Descending FlightAware
Wed 07:50:38 40.3550 21.1060 138° Southeast 548 631 35,100 71 Climbing FlightAware
Wed 07:51:18 40.2770 21.1990 138° Southeast 549 632 35,100  Level FlightAware
Wed 07:51:58 40.2000 21.2920 137° Southeast 550 633 35,100 -71 Level FlightAware
Wed 07:52:43 40.1150 21.3940 137° Southeast 550 633 35,000  Descending FlightAware
Wed 07:53:23 40.0400 21.4830 138° Southeast 550 633 35,100  Climbing FlightAware
Wed 07:54:08 39.9540 21.5850 138° Southeast 551 634 35,000  Descending FlightAware
Wed 07:54:48 39.8780 21.6750 138° Southeast 552 635 35,100 75 Climbing FlightAware
Wed 07:55:28 39.7980 21.7700 138° Southeast 552 635 35,100  Level FlightAware
Wed 07:56:08 39.7220 21.8580 138° Southeast 552 635 35,100  Level FlightAware
Wed 07:56:53 39.6380 21.9570 138° Southeast 552 635 35,100  Level FlightAware
Wed 07:57:33 39.5590 22.0510 137° Southeast 558 642 35,100  Level FlightAware
Wed 07:58:18 39.4730 22.1490 139° Southeast 559 643 35,100  Level FlightAware
Wed 07:58:58 39.3950 22.2410 138° Southeast 558 642 35,100  Level FlightAware
Wed 07:59:43 39.3090 22.3390 139° Southeast 558 642 35,100 -71 Level FlightAware
Wed 08:00:23 39.2340 22.4260 138° Southeast 558 642 35,000  Descending FlightAware
Wed 08:01:03 39.1550 22.5190 138° Southeast 558 642 35,100 71 Climbing FlightAware
Wed 08:01:48 39.0710 22.6140 139° Southeast 560 644 35,100  Level FlightAware
Wed 08:02:28 38.9910 22.7050 139° Southeast 561 646 35,100  Level FlightAware
Wed 08:03:08 38.9160 22.7910 138° Southeast 561 646 35,100 -71 Level FlightAware
Wed 08:03:53 38.8240 22.8950 139° Southeast 561 646 35,000  Descending FlightAware
Wed 08:04:33 38.7460 22.9830 139° Southeast 561 646 35,100 71 Climbing FlightAware
Wed 08:05:18 38.6590 23.0820 138° Southeast 560 644 35,100 -71 Level FlightAware
Wed 08:05:58 38.5820 23.1690 139° Southeast 559 643 35,000  Descending FlightAware
Wed 08:06:43 38.4930 23.2680 139° Southeast 559 643 35,100 71 Climbing FlightAware
Wed 08:07:23 38.4160 23.3550 138° Southeast 559 643 35,100  Level FlightAware
Wed 08:08:03 38.3380 23.4410 139° Southeast 560 644 35,100  Level FlightAware
Wed 08:08:48 38.2500 23.5390 139° Southeast 560 644 35,100  Level FlightAware
Wed 08:09:28 38.1730 23.6230 139° Southeast 560 644 35,100  Level FlightAware
Wed 08:10:13 38.0830 23.7230 139° Southeast 560 644 35,100  Level FlightAware
Wed 08:10:53 38.0040 23.8110 139° Southeast 560 644 35,100  Level FlightAware
Wed 08:11:33 37.9260 23.8950 140° Southeast 560 644 35,100 -71 Level FlightAware
Wed 08:12:18 37.8400 23.9900 139° Southeast 560 644 35,000  Descending FlightAware
Wed 08:12:58 37.7620 24.0750 139° Southeast 560 644 35,100  Climbing FlightAware
Wed 08:13:38 37.6820 24.1640 139° Southeast 559 643 35,000 -71 Descending FlightAware
Wed 08:14:23 37.6120 24.2780 128° Southeast 561 646 35,000 71 Level FlightAware
Wed 08:15:03 37.5550 24.3910 122° Southeast 559 643 35,100 71 Climbing FlightAware
Wed 08:15:48 37.4960 24.5170 121° Southeast 560 644 35,100  Level FlightAware
Wed 08:16:28 37.4440 24.6260 121° Southeast 561 646 35,100  Level FlightAware
Wed 08:17:08 37.3880 24.7400 122° Southeast 561 646 35,100  Level FlightAware
Wed 08:17:53 37.3270 24.8620 122° Southeast 561 646 35,100  Level FlightAware
Wed 08:18:33 37.2710 24.9720 123° Southeast 561 646 35,100  Level FlightAware
Wed 08:19:18 37.2070 25.1020 122° Southeast 561 646 35,100  Level FlightAware
Wed 08:19:58 37.1520 25.2120 122° Southeast 561 646 35,100  Level FlightAware
Wed 08:20:43 37.0930 25.3300 122° Southeast 562 647 35,100 -71 Level FlightAware
Wed 08:21:23 37.0360 25.4400 123° Southeast 562 647 35,000 -75 Descending FlightAware
Wed 08:22:03 36.9810 25.5500 122° Southeast 564 649 35,000  Level FlightAware
Wed 08:22:48 36.9170 25.6770 122° Southeast 564 649 35,000  Level FlightAware
Wed 08:23:18 36.8740 25.7630 122° Southeast 564 649 35,000 86 Level FlightAware
Wed 08:23:58 36.8200 25.8700 122° Southeast 564 649 35,100 75 Climbing FlightAware
Wed 08:24:38 36.7640 25.9770 123° Southeast 564 649 35,100  Level FlightAware
Wed 08:25:23 36.7000 26.1030 122° Southeast 565 650 35,100  Level FlightAware
Wed 08:26:03 36.6450 26.2130 122° Southeast 564 649 35,100  Level FlightAware
Wed 08:26:48 36.5820 26.3330 123° Southeast 566 651 35,100 -71 Level FlightAware
Wed 08:27:28 36.5250 26.4430 123° Southeast 566 651 35,000  Descending FlightAware
Wed 08:28:08 36.4690 26.5500 123° Southeast 567 652 35,100 71 Climbing FlightAware
Wed 08:28:53 36.4030 26.6750 123° Southeast 567 652 35,100 -71 Level FlightAware
Wed 08:29:33 36.3480 26.7820 123° Southeast 567 652 35,000  Descending FlightAware
Wed 08:30:13 36.3010 26.8720 123° Southeast 567 652 35,100 80 Climbing FlightAware
Wed 08:30:48 36.2510 26.9680 123° Southeast 568 654 35,100  Level FlightAware
Wed 08:31:53 36.1580 27.1450 123° Southeast 570 656 35,100  Level FlightAware
Wed 08:32:33 36.0990 27.2570 123° Southeast 570 656 35,100  Level FlightAware
Wed 08:33:13 36.0420 27.3640 123° Southeast 571 657 35,100  Level FlightAware
Wed 08:33:53 35.9850 27.4700 124° Southeast 572 658 35,100  Level FlightAware
Wed 08:34:33 35.9230 27.5870 123° Southeast 572 658 35,100  Level FlightAware
Wed 08:35:23 35.8510 27.7180 124° Southeast 573 659 35,100  Level FlightAware
Wed 08:36:03 35.7980 27.8210 122° Southeast 573 659 35,100  Level FlightAware
Wed 08:36:43 35.7490 27.9140 123° Southeast 573 659 35,100 -375 Level FlightAware
Wed 08:37:23 35.6750 28.0450 125° Southeast 564 649 34,600 -988 Descending FlightAware
Wed 08:38:08 35.6110 28.1630 124° Southeast 553 636 33,700 -1,129 Descending FlightAware
Wed 08:38:48 35.5520 28.2690 124° Southeast 543 625 33,000 -1,412 Descending FlightAware
Wed 08:39:33 35.4810 28.3990 124° Southeast 519 597 31,700 -1,333 Descending FlightAware
Wed 08:40:18 35.4240 28.5040 124° Southeast 500 575 31,000 -525 Descending FlightAware
Wed 08:40:53 35.3830 28.5780 124° Southeast 500 575 31,000  Level FlightAware
Wed 08:41:38 35.3240 28.6860 124° Southeast 31,000  Level FlightAware
Wed 08:42:23 35.2580 28.8060 124° Southeast 530 610 31,000  Level FlightAware
Wed 08:43:03 35.2030 28.9040 124° Southeast 532 612 31,000  Level FlightAware
Wed 08:43:43 35.1420 29.0120 125° Southeast 535 616 31,000 71 Level FlightAware
Wed 08:44:28 35.0810 29.1210 124° Southeast 528 608 31,100  Climbing FlightAware
Wed 08:45:13 35.0240 29.2230 124° Southeast 528 608 31,000 -75 Descending FlightAware
Wed 08:45:48 34.9690 29.3220 124° Southeast 526 605 31,000  Level FlightAware
Wed 08:46:43 34.9010 29.4460 124° Southeast 526 605 31,000  Level FlightAware
Wed 08:48:13 34.7770 29.6600 125° Southeast 521 600 31,000  Level FlightAware
Wed 08:49:38 34.6570 29.8750 124° Southeast 518 596 31,000  Level FlightAware
Wed 08:50:18 34.6110 29.9650 122° Southeast 523 602 31,000 75 Level FlightAware
Wed 08:50:58 34.5580 30.0720 121° Southeast 523 602 31,100  Climbing FlightAware
Wed 08:51:43 34.5040 30.1900 119° Southeast 523 602 31,000 -71 Descending FlightAware
Wed 08:52:23 34.4560 30.2900 120° Southeast 518 596 31,000  Level FlightAware
Wed 08:53:08 34.4020 30.4030 120° Southeast 519 597 31,000  Level FlightAware
Wed 08:53:48 34.3530 30.5040 120° Southeast 519 597 31,000  Level FlightAware
Wed 08:54:33 34.2980 30.6190 120° Southeast 518 596 31,000  Level FlightAware
Wed 08:55:13 34.2480 30.7210 121° Southeast 516 594 31,000  Level FlightAware
Wed 08:55:53 34.2010 30.8150 121° Southeast 513 590 31,000  Level FlightAware
Wed 08:56:38 34.1450 30.9290 121° Southeast 514 592 31,000  Level FlightAware
Wed 08:57:13 34.1030 31.0150 121° Southeast 514 592 31,000  Level FlightAware
Wed 08:58:03 34.0410 31.1410 121° Southeast 513 590 31,000  Level FlightAware
Wed 08:58:43 33.9920 31.2390 121° Southeast 513 590 31,000  Level FlightAware
Wed 08:59:23 33.9430 31.3400 120° Southeast 508 585 31,000  Level FlightAware
Wed 09:00:08 33.8870 31.4520 121° Southeast 510 587 31,000  Level FlightAware
Wed 09:00:48 33.8390 31.5470 121° Southeast 510 587 31,000  Level FlightAware
Wed 09:01:28 33.7900 31.6440 121° Southeast 510 587 31,000  Level FlightAware
Wed 09:02:53 33.6910 31.8430 121° Southeast 506 582 31,000  Level FlightAware
Wed 09:04:18 33.5870 32.0480 121° Southeast 503 579 31,000  Level FlightAware
Wed 09:05:23 33.5080 32.2050 121° Southeast 506 582 31,000  Level FlightAware
Wed 09:06:08 33.4520 32.3130 122° Southeast 506 582 31,000  Level FlightAware
Wed 09:06:53 33.3970 32.4220 121° Southeast 506 582 31,000  Level FlightAware
Wed 09:07:33 33.3480 32.5180 121° Southeast 505 581 31,000  Level FlightAware
Wed 09:08:18 33.2900 32.6280 122° Southeast 504 580 31,000  Level FlightAware
Wed 09:08:58 33.2400 32.7270 121° Southeast 504 580 31,000  Level FlightAware
Wed 09:09:43 33.1850 32.8320 122° Southeast 508 585 31,000 -141 Level FlightAware
Wed 09:10:23 33.1340 32.9320 121° Southeast 506 582 30,800 -568 Descending FlightAware
Wed 09:11:18 33.0690 33.0550 122° Southeast 484 557 30,100 -821 Descending FlightAware
Wed 09:11:58 33.0240 33.1420 122° Southeast 471 542 29,500 -1,412 Descending FlightAware
Wed 09:12:43 32.9710 33.2440 122° Southeast 457 526 28,100 -2,047 Descending FlightAware
Wed 09:13:23 32.9260 33.3310 122° Southeast 450 518 26,600 -2,259 Descending FlightAware
Wed 09:14:08 32.8750 33.4260 123° Southeast 442 509 24,900 -2,188 Descending FlightAware
Wed 09:14:48 32.8330 33.5080 121° Southeast 433 498 23,500 -2,100 Descending FlightAware
Wed 09:15:28 32.7900 33.5880 123° Southeast 424 488 22,100 -1,976 Descending FlightAware
Wed 09:16:13 32.7450 33.6740 122° Southeast 414 476 20,700 -1,906 Descending FlightAware
Wed 09:16:53 32.7050 33.7490 122° Southeast 404 465 19,400 -2,118 Descending FlightAware
Wed 09:17:38 32.6590 33.8350 122° Southeast 399 459 17,700 -2,259 Descending FlightAware
Wed 09:18:18 32.6190 33.9090 123° Southeast 394 453 16,200 -2,188 Descending FlightAware
Wed 09:19:03 32.5750 33.9920 122° Southeast 387 445 14,600 -2,118 Descending FlightAware
Wed 09:19:43 32.5370 34.0640 122° Southeast 382 440 13,200 -2,100 Descending FlightAware
Wed 09:20:23 32.5000 34.1320 123° Southeast 376 433 11,800 -1,835 Descending FlightAware
Wed 09:21:08 32.4520 34.1990 130° Southeast 363 418 10,600 -1,129 Descending FlightAware
Wed 09:21:48 32.4040 34.2570 134° Southeast 328 377 10,200 -450 Descending FlightAware
Wed 09:22:28 32.3640 34.3030 136° Southeast 293 337 10,000 -884 Descending FlightAware
Wed 09:23:23 32.3110 34.3650 135° Southeast 308 354 8,800 -847 Descending FlightAware
Wed 09:23:53 32.2860 34.3950 135° Southeast 308 354 8,800 -1,100 Level FlightAware
Wed 09:24:23 32.2620 34.4350 125° Southeast 281 323 7,700 -1,733 Descending FlightAware
Wed 09:24:38 32.2490 34.4570 125° Southeast 279 321 7,500 -600 Descending FlightAware
Wed 09:25:03 32.2310 34.4860 126° Southeast 280 322 7,300 -545 Descending FlightAware
Wed 09:25:33 32.2090 34.5260 123° Southeast 275 316 7,000 -545 Descending FlightAware
Wed 09:25:58 32.1940 34.5510 125° Southeast 275 316 6,800 -545 Descending FlightAware
Wed 09:26:28 32.1710 34.5900 125° Southeast 272 313 6,500 -655 Descending FlightAware
Wed 09:26:53 32.1500 34.6240 126° Southeast 272 313 6,200 -545 Descending FlightAware
Wed 09:27:23 32.1300 34.6590 124° Southeast 272 313 6,000 -450 Descending FlightAware
Wed 09:27:33 32.1220 34.6720 126° Southeast 268 308 5,900 -750 Descending FlightAware
Wed 09:28:03 32.1010 34.7100 123° Southeast 256 295 5,500 -764 Descending FlightAware
Wed 09:28:28 32.0850 34.7360 126° Southeast 241 277 5,200 -436 Descending FlightAware
Wed 09:28:58 32.0680 34.7640 126° Southeast 233 268 5,100 -300 Descending FlightAware
Wed 09:29:28 32.0440 34.7940 133° Southeast 233 268 4,900 -400 Descending FlightAware
Wed 09:29:43 32.0340 34.8050 137° Southeast 231 266 4,800 -450 Descending FlightAware
Wed 09:30:08 32.0120 34.8310 135° Southeast 228 262 4,600 -873 Descending FlightAware
Wed 09:30:38 31.9880 34.8570 137° Southeast 232 267 4,000 -1,309 Descending FlightAware
Wed 09:31:03 31.9740 34.8790 127° Southeast 233 268 3,400 -1,309 Descending FlightAware
Wed 09:31:33 31.9780 34.9160 83° East 209 241 2,800 -686 Descending FlightAware
Wed 09:32:13 31.9870 34.9550 75° East 199 229 2,600 -300 Descending FlightAware
Wed 09:34:00 32.0095 34.8769 289° West  Level Estimated
Wed 09:35:00 32.0095 34.8769 270° West  Level Estimated

Login

Don't have an account? Register now (free) for customized features, flight alerts, and more!